Weather reports worldwide

Advertisment
Inverness/Dalcross, United Kingdom (3059): temperature & dewpoint: 23.09.2020 02:00:00 - 29.09.2020 02:00:00 (BST)Inverness/Dalcross, United Kingdom (3059): wind speed: 23.09.2020 02:00:00 - 29.09.2020 02:00:00 (BST)Inverness/Dalcross, United Kingdom (3059): wind direction: 23.09.2020 02:00:00 - 29.09.2020 02:00:00 (BST)Inverness/Dalcross, United Kingdom (3059): visibility: 23.09.2020 02:00:00 - 29.09.2020 02:00:00 (BST)
Date & Time tt [°C] td [°C] ff [km/h] ff [kn] dd vv [km]
29.09.2020 02:00:00 6,0 5,0 5 3 - 10
29.09.2020 01:00:00 7,0 6,0 9 5 SW 10
29.09.2020 00:00:00 5,0 5,0 5 3 WSW 10
28.09.2020 23:00:00 6,0 4,0 0 0 N 10
28.09.2020 22:00:00 7,0 5,0 0 0 N 10
28.09.2020 21:00:00 9,0 6,0 8 4 WSW 10
28.09.2020 20:00:00 10,0 7,0 11 6 SSW 10
28.09.2020 19:00:00 11,0 6,0 9 5 SSW 10
28.09.2020 18:00:00 14,0 7,0 24 13 SW 10
28.09.2020 17:00:00 16,0 8,0 22 12 SW 10
28.09.2020 16:00:00 16,0 9,0 18 10 WSW 10
28.09.2020 15:00:00 17,0 9,0 29 16 SW 10
28.09.2020 14:00:00 15,0 11,0 26 14 SW 10
28.09.2020 13:00:00 15,0 12,0 22 12 SW 10
28.09.2020 12:00:00 13,0 10,0 4 2 - 10
28.09.2020 11:00:00 13,0 8,0 13 7 SSW 10
28.09.2020 10:00:00 12,0 7,0 13 7 SW 10
28.09.2020 09:00:00 11,0 6,0 2 1 - 10
28.09.2020 08:00:00 11,0 5,0 21 11 SSW 10
28.09.2020 07:00:00 9,0 5,0 2 1 - 10
28.09.2020 06:00:00 7,0 4,0 2 1 - 10
28.09.2020 05:00:00 8,0 3,0 4 2 WSW 1,8
28.09.2020 04:00:00 4,0 3,0 0 0 N 10
28.09.2020 03:00:00 4,0 3,0 0 0 N 5
28.09.2020 02:00:00 4,0 2,0 2 1 ESE 1,1
28.09.2020 01:00:00 5,0 2,0 0 0 N 1,3
28.09.2020 00:00:00 4,0 3,0 2 1 SSW 10
27.09.2020 23:00:00 5,0 3,0 2 1 - 1,5
27.09.2020 22:00:00 5,0 3,0 0 0 N 2,6
27.09.2020 21:00:00 5,0 4,0 0 0 N 10
27.09.2020 20:00:00 5,0 4,0 0 0 N 10
27.09.2020 19:00:00 8,0 6,0 0 0 N 10
27.09.2020 18:00:00 9,0 6,0 2 1 NNE 10
27.09.2020 17:00:00 10,0 6,0 4 2 - 10
27.09.2020 16:00:00 10,0 5,0 4 2 - 10
27.09.2020 15:00:00 9,0 5,0 5 3 - 10
27.09.2020 14:00:00 10,0 5,0 11 6 N 10
27.09.2020 13:00:00 9,0 4,0 8 4 NW 10
27.09.2020 12:00:00 9,0 4,0 4 2 - 10
27.09.2020 11:00:00 7,0 5,0 4 2 - 10
27.09.2020 10:00:00 4,0 3,0 4 2 - 10
27.09.2020 09:00:00 0,0 0,0 4 2 SSW 10
27.09.2020 08:00:00 -1,0 -1,0 2 1 S 10
27.09.2020 07:00:00 -1,0 -1,0 0 0 N 10
27.09.2020 06:00:00 0,0 0,0 0 0 N 10
27.09.2020 05:00:00 1,0 0,0 2 1 SW 10
27.09.2020 04:00:00 3,0 2,0 4 2 SSW 10
27.09.2020 03:00:00 4,0 3,0 9 5 SSW 10
27.09.2020 02:00:00 1,0 1,0 8 4 SSW 10
27.09.2020 01:00:00 2,0 1,0 0 0 N 10
27.09.2020 00:00:00 5,0 3,0 0 0 N 10
26.09.2020 23:00:00 7,0 4,0 11 6 NW 10
26.09.2020 22:00:00 7,0 5,0 13 7 NW 10
26.09.2020 21:00:00 8,0 4,0 11 6 N 10
26.09.2020 20:00:00 8,0 4,0 11 6 N 10
26.09.2020 19:00:00 10,0 4,0 11 6 N 10
26.09.2020 18:00:00 11,0 4,0 21 11 N 10
26.09.2020 17:00:00 12,0 4,0 21 11 NNE 10
26.09.2020 16:00:00 13,0 4,0 15 8 N 10
26.09.2020 15:00:00 13,0 4,0 18 10 NNE 10
26.09.2020 14:00:00 13,0 4,0 18 10 NNE 10
26.09.2020 13:00:00 12,0 4,0 21 11 NNE 10
26.09.2020 12:00:00 12,0 5,0 15 8 NNW 10
26.09.2020 11:00:00 10,0 5,0 13 7 NNW 10
26.09.2020 10:00:00 10,0 5,0 11 6 NNW 10
26.09.2020 09:00:00 9,0 5,0 11 6 NNW 10
26.09.2020 08:00:00 8,0 4,0 13 7 NW 10
26.09.2020 07:00:00 5,0 4,0 5 3 - 10
26.09.2020 06:00:00 6,0 3,0 9 5 NW 10
26.09.2020 05:00:00 6,0 3,0 8 4 WNW 10
26.09.2020 04:00:00 8,0 4,0 5 3 WNW 10
26.09.2020 03:00:00 8,0 4,0 9 5 W 10
26.09.2020 02:00:00 8,0 4,0 13 7 WNW 10
26.09.2020 01:00:00 7,0 4,0 9 5 WSW 10
26.09.2020 00:00:00 7,0 4,0 13 7 W 10
25.09.2020 23:00:00 7,0 3,0 11 6 W 10
25.09.2020 22:00:00 8,0 3,0 8 4 W 10
25.09.2020 21:00:00 8,0 3,0 11 6 WNW 10
25.09.2020 20:00:00 8,0 2,0 13 7 WNW 10
25.09.2020 19:00:00 8,0 1,0 13 7 NW 10
25.09.2020 18:00:00 10,0 1,0 28 15 NW 10
25.09.2020 17:00:00 10,0 2,0 22 12 NNW 10
25.09.2020 16:00:00 11,0 3,0 18 10 NNW 10
25.09.2020 15:00:00 10,0 5,0 24 13 N 10
25.09.2020 14:00:00 10,0 6,0 29 16 NNW 10
25.09.2020 13:00:00 11,0 4,0 22 12 N 10
25.09.2020 12:00:00 11,0 4,0 16 9 NNW 10
25.09.2020 11:00:00 10,0 5,0 15 8 NNW 10
25.09.2020 10:00:00 9,0 5,0 13 7 NNW 10
25.09.2020 09:00:00 9,0 6,0 16 9 NNW 10
25.09.2020 08:00:00 9,0 6,0 21 11 NNW 10
25.09.2020 07:00:00 7,0 5,0 4 2 - 10
25.09.2020 06:00:00 7,0 5,0 5 3 S 10
25.09.2020 05:00:00 6,0 4,0 8 4 SW 10
25.09.2020 04:00:00 6,0 5,0 5 3 SW 10
25.09.2020 03:00:00 6,0 5,0 8 4 SSW 10
25.09.2020 02:00:00 7,0 5,0 8 4 SW 10
25.09.2020 01:00:00 6,0 5,0 8 4 SSW 10
25.09.2020 00:00:00 5,0 4,0 8 4 SSW 10
24.09.2020 23:00:00 6,0 4,0 4 2 SSW 10
24.09.2020 22:00:00 5,0 4,0 5 3 SW 10
24.09.2020 21:00:00 5,0 4,0 2 1 S 10
24.09.2020 20:00:00 5,0 4,0 5 3 SSW 10
24.09.2020 19:00:00 8,0 5,0 2 1 SSW 10
24.09.2020 18:00:00 9,0 5,0 5 3 SW 10
24.09.2020 17:00:00 10,0 5,0 5 3 SW 10
24.09.2020 16:00:00 10,0 4,0 4 2 - 10
24.09.2020 15:00:00 10,0 5,0 4 2 WSW 10
24.09.2020 14:00:00 10,0 5,0 0 0 N 10
24.09.2020 13:00:00 9,0 5,0 4 2 - 10
24.09.2020 12:00:00 8,0 5,0 5 3 SW 10
24.09.2020 11:00:00 7,0 5,0 9 5 SW 10
24.09.2020 10:00:00 6,0 5,0 9 5 SW 10
24.09.2020 09:00:00 4,0 4,0 9 5 SW 10
24.09.2020 08:00:00 3,0 3,0 5 3 SSW 1,1
24.09.2020 07:00:00 1,0 0,0 9 5 SW 10
24.09.2020 06:00:00 0,0 0,0 4 2 SW 10
24.09.2020 05:00:00 -1,0 -1,0 5 3 SSW 10
24.09.2020 04:00:00 0,0 0,0 0 0 N 10
24.09.2020 03:00:00 0,0 0,0 4 2 S 10
24.09.2020 02:00:00 1,0 0,0 2 1 S 10
24.09.2020 01:00:00 1,0 1,0 0 0 N 10
24.09.2020 00:00:00 2,0 1,0 0 0 N 10
23.09.2020 23:00:00 2,0 2,0 0 0 N 10
23.09.2020 22:00:00 4,0 3,0 0 0 N 10
23.09.2020 21:00:00 6,0 4,0 4 2 ENE 10
23.09.2020 20:00:00 7,0 4,0 5 3 ENE 10
23.09.2020 19:00:00 9,0 5,0 5 3 ENE 10
23.09.2020 18:00:00 10,0 4,0 11 6 NE 10
23.09.2020 17:00:00 12,0 4,0 8 4 NE 10
23.09.2020 16:00:00 12,0 3,0 5 3 - 10
23.09.2020 15:00:00 13,0 4,0 0 0 N 10
23.09.2020 14:00:00 12,0 5,0 4 2 - 10
23.09.2020 13:00:00 12,0 4,0 2 1 - 10
23.09.2020 12:00:00 12,0 4,0 2 1 - 10
23.09.2020 11:00:00 10,0 5,0 5 3 - 10
23.09.2020 10:00:00 9,0 6,0 11 6 SW 10
23.09.2020 09:00:00 7,0 5,0 8 4 SSW 10
23.09.2020 08:00:00 4,0 3,0 8 4 SW 10
23.09.2020 07:00:00 4,0 3,0 8 4 SSW 10
23.09.2020 06:00:00 5,0 4,0 8 4 SW 10
23.09.2020 05:00:00 5,0 4,0 5 3 SSE 10
23.09.2020 04:00:00 6,0 4,0 13 7 SW 10
23.09.2020 03:00:00 8,0 5,0 13 7 WSW 10
23.09.2020 02:00:00 8,0 5,0 16 9 SW 10

tt = temperature
td = dewpoint
ff = wind speed
dd = wind direction
vv = visibility

Next stations